Time;durP1;ratioP1;P1;durP2;ratioP2;P2;SDS_P1;SDS_P2;PMS_P1;PMS_P2;Temp;Humidity;BMP_temperature;BMP_pressure;BME280_temperature;BME280_humidity;BME280_pressure;Samples;Min_cycle;Max_cycle;Signal;HPM_P1;HPM_P2
2022/02/09 00:00:01;;;;;;;2.13;1.90;;;;;;;;;;6095785;23;20483;-87
2022/02/09 00:10:07;;;;;;;3.13;2.83;;;;;;;;;;6153177;23;20021;-84
2022/02/09 00:21:06;;;;;;;3.45;3.25;;;;;;;;;;6092066;23;20335;-86
2022/02/09 00:40:07;;;;;;;1.30;1.30;;;;;;;;;;6146973;23;20026;-86
2022/02/09 01:38:39;;;;;;;3.53;2.58;;;;;;;;;;6158723;23;20021;-86
2022/02/09 01:55:26;;;;;;;3.58;1.70;;;;;;;;;;6148430;23;20018;-85
2022/02/09 01:56:55;;;;;;;2.33;2.20;;;;;;;;;;6124046;23;20028;-85
2022/02/09 01:59:24;;;;;;;3.50;3.28;;;;;;;;;;6155374;23;20032;-85
2022/02/09 02:01:52;;;;;;;2.65;1.77;;;;;;;;;;6159302;23;20383;-86
2022/02/09 02:04:24;;;;;;;3.15;2.40;;;;;;;;;;6152536;23;20113;-85
2022/02/09 02:06:54;;;;;;;3.63;1.92;;;;;;;;;;6158503;23;20040;-86
2022/02/09 02:09:25;;;;;;;2.90;2.72;;;;;;;;;;6147351;23;20026;-85
2022/02/09 02:12:03;;;;;;;2.23;2.00;;;;;;;;;;6154431;23;20500;-85
2022/02/09 02:14:39;;;;;;;4.03;2.25;;;;;;;;;;6157336;23;20014;-86
2022/02/09 02:20:11;;;;;;;2.00;1.90;;;;;;;;;;6130855;23;20026;-86
2022/02/09 02:28:33;;;;;;;2.55;2.28;;;;;;;;;;6153417;23;20029;-85
2022/02/09 02:33:57;;;;;;;3.67;2.67;;;;;;;;;;6079632;23;20476;-85
2022/02/09 02:47:40;;;;;;;7.35;4.55;;;;;;;;;;6156761;23;20487;-86
2022/02/09 03:13:10;;;;;;;6.57;2.93;;;;;;;;;;6127360;23;20026;-85
2022/02/09 03:17:36;;;;;;;2.10;2.00;;;;;;;;;;6148337;23;20025;-85
2022/02/09 03:20:18;;;;;;;3.60;2.67;;;;;;;;;;6127059;23;20036;-86
2022/02/09 03:22:56;;;;;;;2.97;2.58;;;;;;;;;;6158670;23;20014;-85
2022/02/09 03:56:13;;;;;;;2.95;2.47;;;;;;;;;;6125598;23;20017;-85
2022/02/09 03:58:06;;;;;;;3.33;3.03;;;;;;;;;;6108327;23;20017;-85
2022/02/09 04:00:38;;;;;;;3.30;3.10;;;;;;;;;;6180499;23;20029;-85
2022/02/09 04:03:11;;;;;;;3.63;3.33;;;;;;;;;;6187002;23;20017;-84
2022/02/09 04:05:40;;;;;;;4.80;3.70;;;;;;;;;;6187801;23;20020;-84
2022/02/09 04:08:13;;;;;;;5.53;4.40;;;;;;;;;;6181868;23;20024;-85
2022/02/09 04:10:46;;;;;;;3.50;3.20;;;;;;;;;;6188187;23;20452;-85
2022/02/09 04:13:28;;;;;;;3.63;3.33;;;;;;;;;;6150146;23;20032;-85
2022/02/09 04:16:13;;;;;;;4.32;3.28;;;;;;;;;;6156588;23;20029;-85
2022/02/09 04:38:45;;;;;;;2.92;2.60;;;;;;;;;;6190670;23;20475;-88
2022/02/09 04:51:42;;;;;;;9.73;5.03;;;;;;;;;;6186139;23;20465;-84
2022/02/09 04:56:58;;;;;;;5.22;3.95;;;;;;;;;;6181119;23;20044;-84
2022/02/09 05:02:38;;;;;;;3.72;3.03;;;;;;;;;;6189499;23;20021;-84
2022/02/09 05:17:55;;;;;;;6.10;4.13;;;;;;;;;;6189494;23;20021;-84
2022/02/09 05:27:48;;;;;;;4.43;4.00;;;;;;;;;;6041333;23;20027;-83
2022/02/09 05:30:23;;;;;;;5.40;4.32;;;;;;;;;;6067484;23;20636;-87
2022/02/09 05:33:02;;;;;;;3.97;3.08;;;;;;;;;;6116745;23;20029;-83
2022/02/09 05:35:30;;;;;;;5.40;3.80;;;;;;;;;;6123670;23;20022;-82
2022/02/09 05:37:59;;;;;;;4.45;4.05;;;;;;;;;;6091475;23;20018;-83
2022/02/09 05:40:27;;;;;;;3.70;3.47;;;;;;;;;;6091571;23;20030;-84
2022/02/09 05:42:55;;;;;;;5.65;5.18;;;;;;;;;;6125910;23;20018;-82
2022/02/09 05:45:27;;;;;;;4.03;3.72;;;;;;;;;;6143731;23;20032;-84
2022/02/09 05:50:47;;;;;;;4.40;4.00;;;;;;;;;;6157377;23;20353;-81
2022/02/09 05:53:20;;;;;;;4.00;3.70;;;;;;;;;;6149284;23;20041;-89
2022/02/09 05:56:04;;;;;;;7.95;4.18;;;;;;;;;;6146862;23;20436;-84
2022/02/09 05:58:36;;;;;;;;;;;;;;;;;;6157064;23;20041;-84
2022/02/09 06:01:04;;;;;;;5.13;4.72;;;;;;;;;;6172655;23;19917;-86
2022/02/09 06:07:13;;;;;;;5.18;4.82;;;;;;;;;;6160714;23;20062;-85
2022/02/09 06:09:42;;;;;;;6.93;5.15;;;;;;;;;;6154505;23;20036;-85
2022/02/09 06:13:05;;;;;;;9.45;6.28;;;;;;;;;;6150000;23;20018;-86
2022/02/09 06:22:02;;;;;;;4.70;4.38;;;;;;;;;;6067872;23;20022;-85
2022/02/09 06:24:42;;;;;;;6.05;4.93;;;;;;;;;;6033282;23;20022;-83
2022/02/09 06:27:39;;;;;;;7.68;5.43;;;;;;;;;;6080837;23;20022;-88
2022/02/09 06:30:16;;;;;;;4.72;4.30;;;;;;;;;;6108997;23;20037;-86
2022/02/09 06:32:47;;;;;;;6.72;5.43;;;;;;;;;;6146500;23;20441;-86
2022/02/09 06:35:18;;;;;;;8.52;6.70;;;;;;;;;;6149850;23;20022;-86
2022/02/09 06:37:48;;;;;;;9.90;5.33;;;;;;;;;;6122659;23;20025;-87
2022/02/09 06:40:18;;;;;;;5.95;5.03;;;;;;;;;;6151968;23;20029;-86
2022/02/09 06:42:47;;;;;;;7.53;6.50;;;;;;;;;;6157099;23;20018;-86
2022/02/09 06:45:32;;;;;;;6.82;6.30;;;;;;;;;;6148393;23;20036;-86
2022/02/09 06:48:02;;;;;;;9.27;5.28;;;;;;;;;;6152746;23;20040;-86
2022/02/09 06:50:43;;;;;;;11.95;7.18;;;;;;;;;;6158926;23;20025;-87
2022/02/09 06:53:27;;;;;;;5.63;5.05;;;;;;;;;;6145464;23;20026;-87
2022/02/09 06:56:00;;;;;;;5.43;5.03;;;;;;;;;;6146368;23;20032;-88
2022/02/09 07:01:05;;;;;;;4.22;3.88;;;;;;;;;;6145599;23;20021;-88
2022/02/09 07:03:34;;;;;;;6.75;4.25;;;;;;;;;;6153917;23;20022;-88
2022/02/09 07:06:06;;;;;;;7.03;6.32;;;;;;;;;;6156881;23;20017;-87
2022/02/09 07:08:43;;;;;;;5.10;4.60;;;;;;;;;;6150217;23;20029;-87
2022/02/09 07:11:11;;;;;;;5.78;5.20;;;;;;;;;;6154861;23;20032;-88
2022/02/09 07:13:39;;;;;;;8.68;6.15;;;;;;;;;;6156164;23;20037;-87
2022/02/09 07:16:07;;;;;;;4.90;3.83;;;;;;;;;;6145789;23;20026;-87
2022/02/09 07:18:37;;;;;;;4.93;4.40;;;;;;;;;;6158819;23;20017;-88
2022/02/09 07:21:14;;;;;;;4.10;3.80;;;;;;;;;;6147003;23;20029;-88
2022/02/09 07:23:49;;;;;;;4.13;3.72;;;;;;;;;;6154257;23;20029;-88
2022/02/09 07:26:26;;;;;;;5.55;4.90;;;;;;;;;;6146888;23;20021;-87
2022/02/09 07:28:57;;;;;;;4.10;3.80;;;;;;;;;;6144960;23;20025;-88
2022/02/09 07:31:26;;;;;;;5.70;5.20;;;;;;;;;;6122138;23;20460;-88
2022/02/09 07:33:59;;;;;;;5.63;5.13;;;;;;;;;;6147166;23;20017;-88
2022/02/09 07:36:39;;;;;;;6.28;5.13;;;;;;;;;;6150113;23;20589;-88
2022/02/09 07:39:09;;;;;;;6.43;4.93;;;;;;;;;;6150822;23;20029;-88
2022/02/09 07:41:42;;;;;;;7.55;4.68;;;;;;;;;;6147184;23;20032;-88
2022/02/09 07:52:26;;;;;;;4.97;4.57;;;;;;;;;;6132550;23;20029;-89
2022/02/09 07:54:57;;;;;;;5.65;5.15;;;;;;;;;;6157858;23;20018;-88
2022/02/09 07:57:28;;;;;;;4.50;4.10;;;;;;;;;;6121154;23;20030;-88
2022/02/09 07:59:58;;;;;;;3.90;3.58;;;;;;;;;;6169177;23;20021;-88
2022/02/09 08:02:26;;;;;;;5.50;5.05;;;;;;;;;;6158476;23;20378;-89
2022/02/09 08:04:57;;;;;;;6.22;3.05;;;;;;;;;;6147905;23;20421;-89
2022/02/09 08:07:26;;;;;;;5.00;3.47;;;;;;;;;;6145662;23;20345;-88
2022/02/09 08:09:58;;;;;;;3.65;2.90;;;;;;;;;;6157819;23;20024;-88
2022/02/09 08:20:23;;;;;;;4.80;3.00;;;;;;;;;;6138229;23;20807;-89
2022/02/09 08:37:12;;;;;;;5.50;5.10;;;;;;;;;;5917455;24;20032;-87
2022/02/09 08:40:57;;;;;;;2.63;2.30;;;;;;;;;;5951257;24;20032;-88
2022/02/09 08:44:26;;;;;;;6.50;2.88;;;;;;;;;;5971230;23;20122;-87
2022/02/09 08:47:33;;;;;;;3.05;2.75;;;;;;;;;;5968086;23;20028;-87
2022/02/09 08:50:27;;;;;;;1.88;1.75;;;;;;;;;;5976836;24;20028;-87
2022/02/09 08:53:20;;;;;;;3.25;2.60;;;;;;;;;;5980114;23;20032;-87
2022/02/09 08:56:26;;;;;;;3.05;2.85;;;;;;;;;;6002988;23;20541;-87
2022/02/09 08:59:10;;;;;;;2.80;2.60;;;;;;;;;;6019897;23;20024;-87
2022/02/09 09:02:16;;;;;;;2.22;1.95;;;;;;;;;;5996633;23;20027;-87
2022/02/09 09:05:05;;;;;;;3.97;2.70;;;;;;;;;;6065657;23;20025;-85
2022/02/09 09:07:52;;;;;;;2.33;2.13;;;;;;;;;;6128701;23;20034;-85
2022/02/09 10:33:06;;;;;;;2.55;2.40;;;;;;;;;;6043548;23;20372;-87
2022/02/09 10:36:20;;;;;;;1.67;1.58;;;;;;;;;;6061260;23;20027;-87
2022/02/09 10:38:37;;;;;;;1.00;0.82;;;;;;;;;;6051306;23;20027;-86
2022/02/09 10:41:14;;;;;;;1.20;1.10;;;;;;;;;;6087929;23;20026;-87
2022/02/09 10:43:45;;;;;;;2.40;2.08;;;;;;;;;;6125037;23;20029;-87
2022/02/09 10:46:14;;;;;;;3.92;1.30;;;;;;;;;;6128705;23;20017;-88
2022/02/09 10:48:51;;;;;;;0.93;0.88;;;;;;;;;;6121612;23;20617;-87
2022/02/09 10:51:34;;;;;;;3.50;0.80;;;;;;;;;;6127229;23;20022;-87
2022/02/09 10:54:03;;;;;;;0.60;0.60;;;;;;;;;;6128962;23;20014;-86
2022/02/09 10:56:35;;;;;;;0.80;0.80;;;;;;;;;;6122575;23;20618;-87
2022/02/09 10:59:04;;;;;;;1.42;1.10;;;;;;;;;;6125654;23;20014;-87
2022/02/09 11:01:34;;;;;;;1.02;1.02;;;;;;;;;;6127725;23;20072;-87
2022/02/09 11:04:04;;;;;;;0.98;0.98;;;;;;;;;;6124530;23;20037;-87
2022/02/09 11:06:37;;;;;;;1.33;1.23;;;;;;;;;;6127326;23;20037;-87
2022/02/09 11:09:07;;;;;;;1.80;1.70;;;;;;;;;;6119769;23;20034;-87
2022/02/09 11:11:40;;;;;;;1.08;0.90;;;;;;;;;;6126048;23;20026;-86
2022/02/09 11:14:13;;;;;;;2.25;1.38;;;;;;;;;;6128549;23;20022;-86
2022/02/09 11:16:42;;;;;;;1.27;1.17;;;;;;;;;;6121435;23;20669;-86
2022/02/09 11:19:12;;;;;;;1.25;1.15;;;;;;;;;;6127225;23;20024;-87
2022/02/09 11:21:44;;;;;;;1.60;1.27;;;;;;;;;;6129307;23;20651;-86
2022/02/09 11:24:16;;;;;;;0.80;0.80;;;;;;;;;;6123152;23;20026;-86
2022/02/09 11:27:10;;;;;;;1.67;1.15;;;;;;;;;;6128918;23;20013;-87
2022/02/09 11:30:19;;;;;;;1.33;1.02;;;;;;;;;;6133192;23;20346;-86
2022/02/09 11:32:58;;;;;;;1.25;1.17;;;;;;;;;;6145595;23;20032;-86
2022/02/09 11:35:30;;;;;;;3.90;1.80;;;;;;;;;;6155647;23;20445;-86
2022/02/09 11:40:46;;;;;;;1.30;1.20;;;;;;;;;;6147837;23;20365;-87
2022/02/09 12:09:50;;;;;;;1.23;0.77;;;;;;;;;;6146329;23;20036;-87
2022/02/09 12:12:22;;;;;;;1.13;0.90;;;;;;;;;;6148625;23;20353;-87
2022/02/09 12:20:05;;;;;;;0.60;0.60;;;;;;;;;;6153542;23;20026;-87
2022/02/09 12:22:45;;;;;;;0.45;0.45;;;;;;;;;;6158067;23;20024;-87
2022/02/09 12:25:13;;;;;;;0.65;0.65;;;;;;;;;;6147946;23;20022;-87
2022/02/09 12:27:48;;;;;;;1.05;0.70;;;;;;;;;;6153538;23;20025;-87
2022/02/09 12:30:20;;;;;;;0.68;0.68;;;;;;;;;;6167886;23;20029;-87
2022/02/09 12:32:52;;;;;;;0.55;0.55;;;;;;;;;;6179638;23;20033;-88
2022/02/09 12:35:29;;;;;;;0.77;0.60;;;;;;;;;;6184544;23;20032;-88
2022/02/09 12:37:57;;;;;;;1.05;0.80;;;;;;;;;;6187751;23;20380;-86
2022/02/09 12:40:33;;;;;;;0.50;0.50;;;;;;;;;;6180791;23;20029;-87
2022/02/09 12:43:02;;;;;;;1.52;1.42;;;;;;;;;;6187235;23;20017;-86
2022/02/09 12:45:31;;;;;;;3.15;0.93;;;;;;;;;;6187236;23;20013;-86
2022/02/09 12:48:01;;;;;;;1.35;0.70;;;;;;;;;;6182254;23;20025;-86
2022/02/09 12:50:33;;;;;;;0.60;0.60;;;;;;;;;;6187690;23;20017;-86
2022/02/09 12:53:03;;;;;;;0.75;0.75;;;;;;;;;;6177396;23;20474;-87
2022/02/09 12:59:51;;;;;;;0.60;0.60;;;;;;;;;;6176113;23;20025;-89
2022/02/09 13:02:45;;;;;;;1.73;1.00;;;;;;;;;;6163578;23;20013;-88
2022/02/09 13:05:18;;;;;;;0.90;0.90;;;;;;;;;;6150348;23;20025;-89
2022/02/09 13:07:53;;;;;;;0.70;0.70;;;;;;;;;;6178158;23;20029;-87
2022/02/09 13:14:11;;;;;;;2.72;0.52;;;;;;;;;;6153419;23;20021;-85
2022/02/09 14:12:00;;;;;;;1.05;0.55;;;;;;;;;;6034038;23;20018;-89
2022/02/09 14:53:21;;;;;;;3.50;0.70;;;;;;;;;;6181855;23;20026;-89
2022/02/09 14:55:57;;;;;;;0.50;0.50;;;;;;;;;;6154859;23;20025;-89
2022/02/09 14:58:29;;;;;;;0.70;0.70;;;;;;;;;;6164861;23;20722;-90
2022/02/09 15:01:10;;;;;;;1.48;1.38;;;;;;;;;;6129933;23;20032;-89
2022/02/09 15:06:47;;;;;;;2.25;0.60;;;;;;;;;;6191728;23;20255;-89
2022/02/09 15:09:10;;;;;;;0.45;0.40;;;;;;;;;;6129385;23;20021;-90
2022/02/09 15:17:39;;;;;;;1.05;0.70;;;;;;;;;;6120633;23;20032;-89
2022/02/09 15:20:25;;;;;;;1.75;1.15;;;;;;;;;;6160608;23;20020;-89
2022/02/09 15:22:55;;;;;;;0.50;0.50;;;;;;;;;;6130737;23;20472;-90
2022/02/09 15:25:23;;;;;;;0.85;0.85;;;;;;;;;;6181218;23;20028;-90
2022/02/09 15:27:58;;;;;;;1.60;1.50;;;;;;;;;;6187183;23;20079;-89
2022/02/09 15:30:29;;;;;;;1.85;1.15;;;;;;;;;;6185089;23;20366;-90
2022/02/09 15:32:59;;;;;;;5.60;1.48;;;;;;;;;;6156336;23;20023;-89
2022/02/09 15:35:34;;;;;;;3.47;1.63;;;;;;;;;;6189187;23;20017;-90
2022/02/09 15:38:18;;;;;;;2.85;1.95;;;;;;;;;;6191623;23;20009;-90
2022/02/09 15:41:28;;;;;;;3.22;1.65;;;;;;;;;;6157876;23;20032;-90
2022/02/09 15:44:07;;;;;;;3.28;2.80;;;;;;;;;;6148691;23;20559;-89
2022/02/09 15:58:18;;;;;;;0.57;0.52;;;;;;;;;;6164895;23;20353;-88
2022/02/09 16:23:13;;;;;;;1.95;1.10;;;;;;;;;;6115626;23;20328;-88
2022/02/09 16:26:16;;;;;;;0.60;0.60;;;;;;;;;;6164965;23;20017;-86
2022/02/09 16:46:37;;;;;;;0.73;0.73;;;;;;;;;;6192152;23;20476;-83
2022/02/09 16:49:10;;;;;;;0.88;0.88;;;;;;;;;;6183797;23;20480;-87
2022/02/09 16:52:13;;;;;;;;;;;;;;;;;;;;;
2022/02/09 16:54:58;;;;;;;1.40;1.02;;;;;;;;;;6191936;23;20436;-85
2022/02/09 17:20:09;;;;;;;2.33;1.10;;;;;;;;;;6069337;23;20046;-86
2022/02/09 17:22:39;;;;;;;1.38;1.27;;;;;;;;;;6069974;23;20029;-84
2022/02/09 17:25:08;;;;;;;0.75;0.75;;;;;;;;;;6118294;23;20018;-87
2022/02/09 17:27:37;;;;;;;0.93;0.88;;;;;;;;;;6099564;23;20032;-84
2022/02/09 17:33:06;;;;;;;0.80;0.80;;;;;;;;;;6121396;23;20029;-84
2022/02/09 17:35:50;;;;;;;1.55;1.48;;;;;;;;;;6157965;23;20029;-85
2022/02/09 17:55:53;;;;;;;1.13;1.02;;;;;;;;;;6149643;23;20036;-87
2022/02/09 17:58:33;;;;;;;3.25;1.73;;;;;;;;;;6176789;23;20021;-87
2022/02/09 18:01:02;;;;;;;1.90;1.80;;;;;;;;;;6127402;23;20024;-86
2022/02/09 18:03:31;;;;;;;2.03;1.95;;;;;;;;;;6184652;23;20025;-86
2022/02/09 18:06:20;;;;;;;1.80;1.48;;;;;;;;;;6149530;23;20029;-87
2022/02/09 19:05:05;;;;;;;3.28;2.10;;;;;;;;;;6096298;23;20033;-86
2022/02/09 19:44:54;;;;;;;4.90;4.47;;;;;;;;;;6154521;23;20334;-84
2022/02/09 19:46:58;;;;;;;8.48;3.03;;;;;;;;;;6124917;23;20040;-84
2022/02/09 19:57:40;;;;;;;2.47;2.28;;;;;;;;;;6141432;23;20025;-88
2022/02/09 20:00:17;;;;;;;3.92;2.60;;;;;;;;;;6123812;23;20848;-86
2022/02/09 20:02:50;;;;;;;3.53;3.28;;;;;;;;;;6136637;23;20028;-84
2022/02/09 20:05:26;;;;;;;6.38;4.28;;;;;;;;;;6124758;23;20449;-85
2022/02/09 20:07:55;;;;;;;3.33;3.03;;;;;;;;;;6123722;23;20025;-85
2022/02/09 20:10:24;;;;;;;4.45;2.92;;;;;;;;;;6125191;23;20460;-85
2022/02/09 20:12:52;;;;;;;2.55;2.42;;;;;;;;;;6151082;23;20361;-85
2022/02/09 20:15:21;;;;;;;9.98;4.35;;;;;;;;;;6156702;23;20021;-85
2022/02/09 20:17:50;;;;;;;3.10;2.90;;;;;;;;;;6100585;23;20191;-85
2022/02/09 20:20:27;;;;;;;3.80;3.38;;;;;;;;;;6097871;23;20036;-85
2022/02/09 20:22:58;;;;;;;3.15;2.88;;;;;;;;;;6185540;23;20021;-85
2022/02/09 20:25:28;;;;;;;;;;;;;;;;;;6148998;23;20021;-85
2022/02/09 20:27:56;;;;;;;4.90;4.32;;;;;;;;;;6148923;23;19920;-86
2022/02/09 20:30:35;;;;;;;3.10;2.90;;;;;;;;;;6180026;23;20021;-86
2022/02/09 20:33:20;;;;;;;3.83;2.80;;;;;;;;;;6175805;23;20024;-87
2022/02/09 20:35:52;;;;;;;5.30;3.95;;;;;;;;;;6149504;23;20036;-86
2022/02/09 20:38:25;;;;;;;4.65;4.22;;;;;;;;;;6157064;23;20032;-82
2022/02/09 20:40:59;;;;;;;2.80;2.45;;;;;;;;;;6149931;23;20032;-85
2022/02/09 20:43:31;;;;;;;3.80;3.50;;;;;;;;;;6178377;23;20027;-86
2022/02/09 20:46:05;;;;;;;6.60;3.03;;;;;;;;;;6158227;23;20029;-86
2022/02/09 20:48:35;;;;;;;4.85;3.45;;;;;;;;;;6123599;23;20036;-87
2022/02/09 20:51:06;;;;;;;5.55;4.22;;;;;;;;;;6184357;23;20017;-87
2022/02/09 20:53:39;;;;;;;3.70;2.90;;;;;;;;;;6159365;23;20013;-86
2022/02/09 20:56:09;;;;;;;3.30;3.00;;;;;;;;;;6179366;23;20029;-87
2022/02/09 20:58:46;;;;;;;5.90;4.63;;;;;;;;;;6148177;23;20509;-86
2022/02/09 21:01:27;;;;;;;5.93;5.32;;;;;;;;;;6149199;23;20025;-86
2022/02/09 21:04:02;;;;;;;4.55;3.88;;;;;;;;;;6147786;23;20060;-86
2022/02/09 21:07:05;;;;;;;5.15;4.35;;;;;;;;;;6175358;23;20356;-86
2022/02/09 21:09:38;;;;;;;6.40;4.07;;;;;;;;;;6142836;23;20035;-86
2022/02/09 21:20:35;;;;;;;4.32;4.03;;;;;;;;;;6180810;23;20043;-84
2022/02/09 21:23:27;;;;;;;5.30;4.72;;;;;;;;;;6186664;23;20445;-86
2022/02/09 21:54:11;;;;;;;9.45;6.43;;;;;;;;;;6151342;23;20021;-86
2022/02/09 21:56:48;;;;;;;5.65;5.05;;;;;;;;;;6101325;23;20627;-85
2022/02/09 22:30:14;;;;;;;5.45;4.50;;;;;;;;;;6159201;23;20033;-81
2022/02/09 22:56:55;;;;;;;5.25;4.68;;;;;;;;;;6125032;23;20029;-81
2022/02/09 23:01:56;;;;;;;4.32;3.63;;;;;;;;;;6126327;23;20024;-81
2022/02/09 23:04:38;;;;;;;5.13;4.63;;;;;;;;;;6125127;23;20704;-81
2022/02/09 23:09:56;;;;;;;6.65;6.13;;;;;;;;;;6159531;23;20016;-87
2022/02/09 23:15:10;;;;;;;6.97;5.20;;;;;;;;;;6186775;23;20866;-87
2022/02/09 23:23:30;;;;;;;4.45;4.07;;;;;;;;;;6185852;23;20024;-87
2022/02/09 23:29:25;;;;;;;6.07;4.72;;;;;;;;;;6179999;23;20032;-88
